createdAt,value
2019-04-11T00:00:11.463Z,70.83
2019-04-11T00:02:44.814Z,73.78
2019-04-11T00:05:18.854Z,71.28
2019-04-11T00:07:52.211Z,69.70
2019-04-11T00:10:25.181Z,70.35
2019-04-11T00:12:58.955Z,64.55
2019-04-11T00:15:32.805Z,68.05
2019-04-11T00:18:06.303Z,66.62
2019-04-11T00:20:40.267Z,70.70
2019-04-11T00:23:14.184Z,64.85
2019-04-11T00:25:47.475Z,65.72
2019-04-11T00:28:20.222Z,73.07
2019-04-11T00:30:52.641Z,71.22
2019-04-11T00:33:26.437Z,72.55
2019-04-11T00:35:57.786Z,73.72
2019-04-11T00:38:31.963Z,68.85
2019-04-11T00:41:05.847Z,71.47
2019-04-11T00:43:41.875Z,78.10
2019-04-11T00:46:11.952Z,76.15
2019-04-11T00:48:46.104Z,78.20
2019-04-11T00:51:18.747Z,76.37
2019-04-11T00:53:52.070Z,77.08
2019-04-11T00:56:24.885Z,80.83
2019-04-11T00:58:58.291Z,51.35
2019-04-11T01:01:31.640Z,72.00
2019-04-11T01:04:04.641Z,75.52
2019-04-11T01:06:38.365Z,72.42
2019-04-11T01:09:12.436Z,83.10
2019-04-11T01:11:45.795Z,79.12
2019-04-11T01:14:18.781Z,76.22
2019-04-11T01:16:53.693Z,72.42
2019-04-11T01:19:27.061Z,81.60
2019-04-11T01:21:59.504Z,74.35
2019-04-11T01:24:33.663Z,75.70
2019-04-11T01:27:07.770Z,78.02
2019-04-11T01:29:41.901Z,82.08
2019-04-11T01:32:15.959Z,82.67
2019-04-11T01:34:48.752Z,72.05
2019-04-11T01:37:21.961Z,74.53
2019-04-11T01:39:59.232Z,73.90
2019-04-11T01:42:33.362Z,74.97
2019-04-11T01:45:07.318Z,80.70
2019-04-11T01:48:04.382Z,79.37
2019-04-11T01:50:37.564Z,79.25
2019-04-11T01:53:09.121Z,76.50
2019-04-11T01:55:42.882Z,77.08
2019-04-11T01:58:16.541Z,81.00
2019-04-11T02:01:04.185Z,79.58
2019-04-11T02:03:52.701Z,82.57
2019-04-11T02:06:25.842Z,72.30
2019-04-11T02:08:59.825Z,80.40
2019-04-11T02:11:33.848Z,80.38
2019-04-11T02:14:14.274Z,81.55
2019-04-11T02:16:43.289Z,85.20
2019-04-11T02:19:14.361Z,84.15
2019-04-11T02:21:46.662Z,71.75
2019-04-11T02:24:36.341Z,83.80
2019-04-11T02:27:23.313Z,78.67
2019-04-11T02:29:55.988Z,79.77
2019-04-11T02:32:29.302Z,82.55
2019-04-11T02:35:06.474Z,83.42
2019-04-11T02:37:37.935Z,82.20
2019-04-11T02:40:11.189Z,79.12
2019-04-11T02:42:43.322Z,82.85
2019-04-11T02:45:32.638Z,83.45
2019-04-11T02:47:53.678Z,77.40
2019-04-11T02:50:26.524Z,78.78
2019-04-11T02:53:00.817Z,74.67
2019-04-11T02:55:33.536Z,75.83
2019-04-11T02:58:07.864Z,74.90
2019-04-11T03:00:40.797Z,80.30
2019-04-11T03:03:15.024Z,75.47
2019-04-11T03:05:48.514Z,79.15
2019-04-11T03:08:22.691Z,78.07
2019-04-11T03:10:57.439Z,77.53
2019-04-11T03:13:30.382Z,80.42
2019-04-11T03:16:16.837Z,75.65
2019-04-11T03:18:54.797Z,73.72
2019-04-11T03:21:14.524Z,74.87
2019-04-11T03:23:44.781Z,74.72
2019-04-11T03:26:18.938Z,71.55
2019-04-11T03:28:55.611Z,75.83
2019-04-11T03:32:04.637Z,72.12
2019-04-11T03:34:52.164Z,63.00
2019-04-11T03:37:13.703Z,71.90
2019-04-11T03:39:28.123Z,73.72
2019-04-11T03:41:59.007Z,67.80
2019-04-11T03:44:24.492Z,68.70
2019-04-11T03:47:08.339Z,65.47
2019-04-11T03:49:34.245Z,73.78
2019-04-11T03:51:59.233Z,71.55
2019-04-11T03:54:31.835Z,61.55
2019-04-11T03:57:05.638Z,64.97
2019-04-11T03:59:40.559Z,59.33
2019-04-11T04:02:15.328Z,64.12
2019-04-11T04:04:46.773Z,71.15
2019-04-11T04:07:21.409Z,65.45
2019-04-11T04:09:54.565Z,63.73
2019-04-11T04:12:29.332Z,55.65
2019-04-11T04:15:09.159Z,59.20
2019-04-11T04:18:00.362Z,61.13
2019-04-11T04:20:51.274Z,63.10
2019-04-11T04:23:31.360Z,51.30
2019-04-11T04:26:06.220Z,61.15
2019-04-11T04:28:40.658Z,59.35
2019-04-11T04:31:14.043Z,56.63
2019-04-11T04:33:47.691Z,55.28
2019-04-11T04:36:22.371Z,58.00
2019-04-11T04:38:54.673Z,58.68
2019-04-11T04:41:37.521Z,58.55
2019-04-11T04:44:04.305Z,55.90
2019-04-11T04:46:52.683Z,54.95
2019-04-11T04:49:11.170Z,64.17
2019-04-11T04:51:45.731Z,57.38
2019-04-11T04:54:19.824Z,60.88
2019-04-11T04:56:52.418Z,61.80
2019-04-11T04:59:25.475Z,59.42
2019-04-11T05:01:59.356Z,60.88
2019-04-11T05:04:33.618Z,63.83
2019-04-11T05:07:07.283Z,59.20
2019-04-11T05:09:40.599Z,56.95
2019-04-11T05:12:13.953Z,61.33
2019-04-11T05:14:45.783Z,60.58
2019-04-11T05:17:19.239Z,64.25
2019-04-11T05:19:52.881Z,63.75
2019-04-11T05:22:26.708Z,58.25
2019-04-11T05:25:01.749Z,57.75
2019-04-11T05:27:33.554Z,59.77
2019-04-11T05:30:07.936Z,57.30
2019-04-11T05:32:41.751Z,56.40
2019-04-11T05:35:16.495Z,56.60
2019-04-11T05:37:51.416Z,53.52
2019-04-11T05:40:24.342Z,54.38
2019-04-11T05:42:57.625Z,54.05
2019-04-11T05:45:31.729Z,56.33
2019-04-11T05:48:05.821Z,52.35
2019-04-11T05:50:44.239Z,50.83
2019-04-11T05:53:12.241Z,55.55
2019-04-11T05:55:47.484Z,57.95
2019-04-11T05:58:20.301Z,55.20
2019-04-11T06:01:06.128Z,52.13
2019-04-11T06:03:41.051Z,54.35
2019-04-11T06:06:46.901Z,55.03
2019-04-11T06:09:23.976Z,51.53
2019-04-11T06:12:31.699Z,49.10
2019-04-11T06:15:09.402Z,50.10
2019-04-11T06:17:43.202Z,52.00
2019-04-11T06:20:33.433Z,50.17
2019-04-11T06:23:21.287Z,49.65
2019-04-11T06:26:21.320Z,50.17
2019-04-11T06:28:57.018Z,47.27
2019-04-11T06:31:47.430Z,48.60
2019-04-11T06:34:23.604Z,50.48
2019-04-11T06:37:13.809Z,47.75
2019-04-11T06:39:51.661Z,46.30
2019-04-11T06:42:41.383Z,48.75
2019-04-11T06:45:31.379Z,49.50
2019-04-11T06:48:26.297Z,46.63
2019-04-11T06:51:19.867Z,46.65
2019-04-11T06:54:10.764Z,44.83
2019-04-11T06:56:47.582Z,49.38
2019-04-11T06:59:38.802Z,47.25
2019-04-11T07:02:19.072Z,46.25
2019-04-11T07:05:11.044Z,46.48
2019-04-11T07:07:45.539Z,49.35
2019-04-11T07:10:20.229Z,49.15
2019-04-11T07:13:01.581Z,51.13
2019-04-11T07:15:44.260Z,55.12
2019-04-11T07:18:34.172Z,50.48
2019-04-11T07:21:12.684Z,47.75
2019-04-11T07:24:03.861Z,46.25
2019-04-11T07:26:50.099Z,49.23
2019-04-11T07:29:56.553Z,82.97
2019-04-11T07:32:30.203Z,49.00
2019-04-11T07:35:19.314Z,48.90
2019-04-11T07:37:55.403Z,49.90
2019-04-11T07:41:01.962Z,48.17
2019-04-11T07:43:36.162Z,50.85
2019-04-11T07:46:28.843Z,47.43
2019-04-11T07:49:08.172Z,50.50
2019-04-11T07:51:45.035Z,46.08
2019-04-11T07:54:20.273Z,51.08
2019-04-11T07:57:00.233Z,48.85
2019-04-11T08:00:03.909Z,51.13
2019-04-11T08:03:14.456Z,49.45
2019-04-11T08:06:08.024Z,46.33
2019-04-11T08:08:47.129Z,45.12
2019-04-11T08:11:33.880Z,44.77
2019-04-11T08:14:42.605Z,34.38
2019-04-11T08:17:30.914Z,39.20
2019-04-11T08:20:15.277Z,40.80
2019-04-11T08:22:49.704Z,43.48
2019-04-11T08:25:51.532Z,39.35
2019-04-11T08:28:23.202Z,39.18
2019-04-11T08:31:28.898Z,38.00
2019-04-11T08:34:04.931Z,26.35
2019-04-11T08:37:05.306Z,39.78
2019-04-11T08:39:42.019Z,29.40
2019-04-11T08:42:31.690Z,38.98
2019-04-11T08:45:05.999Z,39.63
2019-04-11T08:47:52.691Z,37.83
2019-04-11T08:50:26.186Z,47.13
2019-04-11T08:53:13.783Z,37.95
2019-04-11T08:55:57.094Z,42.05
2019-04-11T08:58:33.757Z,35.60
2019-04-11T09:01:07.464Z,42.30
2019-04-11T09:04:05.223Z,47.85
2019-04-11T09:06:34.672Z,36.40
2019-04-11T09:09:25.608Z,38.63
2019-04-11T09:12:04.453Z,37.03
2019-04-11T09:14:54.755Z,36.45
2019-04-11T09:17:37.077Z,40.12
2019-04-11T09:20:27.632Z,37.75
2019-04-11T09:23:11.703Z,42.27
2019-04-11T09:26:03.546Z,33.58
2019-04-11T09:28:41.945Z,37.38
2019-04-11T09:31:42.182Z,38.00
2019-04-11T09:34:39.735Z,45.85
2019-04-11T09:37:22.079Z,41.58
2019-04-11T09:40:15.258Z,40.33
2019-04-11T09:42:51.246Z,45.28
2019-04-11T09:45:44.409Z,37.08
2019-04-11T09:48:44.399Z,41.30
2019-04-11T09:51:40.515Z,44.67
2019-04-11T09:54:46.862Z,34.90
2019-04-11T09:57:28.846Z,40.43
2019-04-11T10:00:18.578Z,40.83
2019-04-11T10:03:13.036Z,39.55
2019-04-11T10:06:07.246Z,35.73
2019-04-11T10:08:55.475Z,40.00
2019-04-11T10:11:55.285Z,40.33
2019-04-11T10:14:29.402Z,34.73
2019-04-11T10:17:22.252Z,31.17
2019-04-11T10:19:58.257Z,30.88
2019-04-11T10:22:49.578Z,33.35
2019-04-11T10:25:33.317Z,33.25
2019-04-11T10:28:29.833Z,34.85
2019-04-11T10:31:10.606Z,31.60
2019-04-11T10:34:03.203Z,32.93
2019-04-11T10:36:39.073Z,35.58
2019-04-11T10:39:29.809Z,33.73
2019-04-11T10:42:04.909Z,33.83
2019-04-11T10:44:54.438Z,35.43
2019-04-11T10:47:29.101Z,40.15
2019-04-11T10:50:19.471Z,32.38
2019-04-11T10:52:55.085Z,36.60
2019-04-11T10:55:35.695Z,31.77
2019-04-11T10:58:12.975Z,34.63
2019-04-11T11:01:13.676Z,31.97
2019-04-11T11:04:13.826Z,32.70
2019-04-11T11:06:48.385Z,35.25
2019-04-11T11:09:30.222Z,31.75
2019-04-11T11:12:21.018Z,35.43
2019-04-11T11:15:09.456Z,35.92
2019-04-11T11:18:32.058Z,32.93
2019-04-11T11:20:55.815Z,35.75
2019-04-11T11:23:44.979Z,28.85
2019-04-11T11:26:22.650Z,30.65
2019-04-11T11:29:14.894Z,33.63
2019-04-11T11:31:52.984Z,34.73
2019-04-11T11:34:35.004Z,35.45
2019-04-11T11:37:31.412Z,33.15
2019-04-11T11:40:32.066Z,34.75
2019-04-11T11:43:23.163Z,32.88
2019-04-11T11:46:22.768Z,34.45
2019-04-11T11:48:55.003Z,38.58
2019-04-11T11:51:53.969Z,39.85
2019-04-11T11:54:34.184Z,37.73
2019-04-11T11:57:10.812Z,31.70
2019-04-11T11:59:48.283Z,33.67
2019-04-11T12:02:26.375Z,32.55
2019-04-11T12:05:12.479Z,38.92
2019-04-11T12:07:56.128Z,40.17
2019-04-11T12:10:47.439Z,37.10
2019-04-11T12:13:40.667Z,35.73
2019-04-11T12:16:19.280Z,32.63
2019-04-11T12:19:15.848Z,35.95
2019-04-11T12:21:48.893Z,32.17
2019-04-11T12:24:30.123Z,32.88
2019-04-11T12:27:20.780Z,31.42
2019-04-11T12:30:10.884Z,36.70
2019-04-11T12:32:53.541Z,37.73
2019-04-11T12:35:44.409Z,36.08
2019-04-11T12:38:37.906Z,41.18
2019-04-11T12:41:35.441Z,36.50
2019-04-11T12:44:35.016Z,38.45
2019-04-11T12:47:40.873Z,40.50
2019-04-11T12:50:31.919Z,41.88
2019-04-11T12:53:22.613Z,35.50
2019-04-11T12:56:19.234Z,38.88
2019-04-11T12:58:53.988Z,37.88
2019-04-11T13:01:44.628Z,35.33
2019-04-11T13:04:30.550Z,36.48
2019-04-11T13:07:33.383Z,36.98
2019-04-11T13:10:44.293Z,37.60
2019-04-11T13:13:24.275Z,37.45
2019-04-11T13:15:58.735Z,40.08
2019-04-11T13:19:04.513Z,39.98
2019-04-11T13:21:54.276Z,40.92
2019-04-11T13:24:43.224Z,43.75
2019-04-11T13:27:20.273Z,41.15
2019-04-11T13:30:10.894Z,44.00
2019-04-11T13:32:55.254Z,38.08
2019-04-11T13:35:45.993Z,38.53
2019-04-11T13:38:28.074Z,42.10
2019-04-11T13:41:20.306Z,31.15
2019-04-11T13:44:14.915Z,38.10
2019-04-11T13:47:05.415Z,40.00
2019-04-11T13:49:54.378Z,32.42
2019-04-11T13:52:44.873Z,30.15
2019-04-11T13:55:20.056Z,34.23
2019-04-11T13:58:11.554Z,33.73
2019-04-11T14:00:51.814Z,34.13
2019-04-11T14:03:45.616Z,36.48
2019-04-11T14:06:25.596Z,35.88
2019-04-11T14:09:26.083Z,26.35
2019-04-11T14:12:04.768Z,36.45
2019-04-11T14:14:36.989Z,38.78
2019-04-11T14:17:18.418Z,34.40
2019-04-11T14:20:29.742Z,37.63
2019-04-11T14:23:20.174Z,40.80
2019-04-11T14:26:13.739Z,37.15
2019-04-11T14:28:52.076Z,34.03
2019-04-11T14:31:41.613Z,39.55
2019-04-11T14:34:32.415Z,31.65
2019-04-11T14:37:25.762Z,37.08
2019-04-11T14:40:05.594Z,40.45
2019-04-11T14:43:05.687Z,40.28
2019-04-11T14:45:56.461Z,35.13
2019-04-11T14:48:43.123Z,43.48
2019-04-11T14:51:32.643Z,29.98
2019-04-11T14:54:08.766Z,42.48
2019-04-11T14:56:47.825Z,44.15
2019-04-11T14:59:41.046Z,39.05
2019-04-11T15:02:34.367Z,35.73
2019-04-11T15:05:25.866Z,43.92
2019-04-11T15:07:59.306Z,44.35
2019-04-11T15:10:40.761Z,45.52
2019-04-11T15:13:15.731Z,45.33
2019-04-11T15:16:05.657Z,43.38
2019-04-11T15:18:40.826Z,38.10
2019-04-11T15:21:36.390Z,44.05
2019-04-11T15:24:07.643Z,47.17
2019-04-11T15:26:52.527Z,38.35
2019-04-11T15:29:29.706Z,42.98
2019-04-11T15:32:32.246Z,45.90
2019-04-11T15:35:10.469Z,39.35
2019-04-11T15:37:59.686Z,46.77
2019-04-11T15:40:49.146Z,46.50
2019-04-11T15:43:42.314Z,38.15
2019-04-11T15:46:21.947Z,35.08
2019-04-11T15:49:20.549Z,44.50
2019-04-11T15:51:47.486Z,43.28
2019-04-11T15:54:46.526Z,45.23
2019-04-11T15:57:22.459Z,45.43
2019-04-11T16:00:30.681Z,42.58
2019-04-11T16:03:27.242Z,48.48
2019-04-11T16:06:16.453Z,44.05
2019-04-11T16:08:55.692Z,46.77
2019-04-11T16:11:45.933Z,35.35
2019-04-11T16:14:22.342Z,27.20
2019-04-11T16:17:13.701Z,52.03
2019-04-11T16:19:47.896Z,46.90
2019-04-11T16:22:37.207Z,48.83
2019-04-11T16:25:11.952Z,44.83
2019-04-11T16:28:08.310Z,48.05
2019-04-11T16:30:52.861Z,49.83
2019-04-11T16:33:45.750Z,34.48
2019-04-11T16:36:40.447Z,32.95
2019-04-11T16:39:33.023Z,36.30
2019-04-11T16:42:07.975Z,43.10
2019-04-11T16:44:57.647Z,32.95
2019-04-11T16:47:47.632Z,43.55
2019-04-11T16:50:20.708Z,43.13
2019-04-11T16:52:53.048Z,37.67
2019-04-11T16:55:25.427Z,49.53
2019-04-11T16:57:57.950Z,46.40
2019-04-11T17:00:30.370Z,48.23
2019-04-11T17:03:02.342Z,41.68
2019-04-11T17:05:35.083Z,44.50
2019-04-11T17:08:33.342Z,49.50
2019-04-11T17:11:19.403Z,36.65
2019-04-11T17:13:52.068Z,44.88
2019-04-11T17:16:29.947Z,43.45
2019-04-11T17:19:05.021Z,56.68
2019-04-11T17:21:42.759Z,45.50
2019-04-11T17:24:08.045Z,39.18
2019-04-11T17:26:39.903Z,43.08
2019-04-11T17:29:12.422Z,49.42
2019-04-11T17:31:44.447Z,52.78
2019-04-11T17:34:16.223Z,48.90
2019-04-11T17:36:47.705Z,47.23
2019-04-11T17:39:20.302Z,51.30
2019-04-11T17:41:52.622Z,46.80
2019-04-11T17:44:25.539Z,50.25
2019-04-11T17:46:57.422Z,31.02
2019-04-11T17:49:29.163Z,48.87
2019-04-11T17:52:04.803Z,54.15
2019-04-11T17:54:35.350Z,49.33
2019-04-11T17:57:07.144Z,48.75
2019-04-11T17:59:40.522Z,46.00
2019-04-11T18:02:13.082Z,50.25
2019-04-11T18:04:47.896Z,52.15
2019-04-11T18:07:19.266Z,48.25
2019-04-11T18:09:55.709Z,55.78
2019-04-11T18:12:26.830Z,48.73
2019-04-11T18:15:02.172Z,52.23
2019-04-11T18:17:34.971Z,45.75
2019-04-11T18:20:07.604Z,55.70
2019-04-11T18:22:40.343Z,52.05
2019-04-11T18:25:12.743Z,51.33
2019-04-11T18:27:45.022Z,48.95
2019-04-11T18:30:17.823Z,56.00
2019-04-11T18:32:50.923Z,51.70
2019-04-11T18:35:23.762Z,45.43
2019-04-11T18:37:54.828Z,50.10
2019-04-11T18:40:26.843Z,51.83
2019-04-11T18:42:58.942Z,48.40
2019-04-11T18:45:31.262Z,53.63
2019-04-11T18:48:02.222Z,51.10
2019-04-11T18:50:35.922Z,50.95
2019-04-11T18:53:10.063Z,52.33
2019-04-11T18:55:41.807Z,51.63
2019-04-11T18:58:14.743Z,48.90
2019-04-11T19:00:47.283Z,53.33
2019-04-11T19:03:21.284Z,50.67
2019-04-11T19:05:54.463Z,54.45
2019-04-11T19:08:27.827Z,49.33
2019-04-11T19:10:59.822Z,49.05
2019-04-11T19:13:30.564Z,54.08
2019-04-11T19:16:03.482Z,50.48
2019-04-11T19:18:35.743Z,55.98
2019-04-11T19:21:07.483Z,57.43
2019-04-11T19:23:40.183Z,48.30
2019-04-11T19:26:14.779Z,46.88
2019-04-11T19:28:49.142Z,57.05
2019-04-11T19:31:20.982Z,58.78
2019-04-11T19:33:54.484Z,52.38
2019-04-11T19:36:27.522Z,51.13
2019-04-11T19:39:01.368Z,51.58
2019-04-11T19:41:34.083Z,50.03
2019-04-11T19:44:06.523Z,58.90
2019-04-11T19:46:37.603Z,53.33
2019-04-11T19:49:10.143Z,54.60
2019-04-11T19:51:42.342Z,58.75
2019-04-11T19:54:14.422Z,53.40
2019-04-11T19:56:50.342Z,53.38
2019-04-11T19:59:22.682Z,54.98
2019-04-11T20:01:55.983Z,52.98
2019-04-11T20:04:26.866Z,58.60
2019-04-11T20:06:59.844Z,53.23
2019-04-11T20:09:32.104Z,55.17
2019-04-11T20:12:03.923Z,48.87
2019-04-11T20:14:36.843Z,55.28
2019-04-11T20:17:09.268Z,56.25
2019-04-11T20:19:42.463Z,52.65
2019-04-11T20:22:16.503Z,55.17
2019-04-11T20:24:49.017Z,53.23
2019-04-11T20:27:21.823Z,55.95
2019-04-11T20:29:55.473Z,53.45
2019-04-11T20:32:30.578Z,51.50
2019-04-11T20:35:03.108Z,56.65
2019-04-11T20:37:39.596Z,54.30
2019-04-11T20:40:09.742Z,49.25
2019-04-11T20:42:42.042Z,54.03
2019-04-11T20:45:14.704Z,51.77
2019-04-11T20:47:46.743Z,54.65
2019-04-11T20:50:19.083Z,51.63
2019-04-11T20:52:52.143Z,55.30
2019-04-11T20:55:23.743Z,55.43
2019-04-11T20:57:57.189Z,54.20
2019-04-11T21:00:29.624Z,59.48
2019-04-11T21:03:01.944Z,50.00
2019-04-11T21:05:34.123Z,52.03
2019-04-11T21:08:07.362Z,57.88
2019-04-11T21:10:40.183Z,56.98
2019-04-11T21:13:11.283Z,52.53
2019-04-11T21:15:44.302Z,54.88
2019-04-11T21:18:16.283Z,53.13
2019-04-11T21:20:48.422Z,54.08
2019-04-11T21:23:24.636Z,55.63
2019-04-11T21:25:53.563Z,52.25
2019-04-11T21:28:29.806Z,53.95
2019-04-11T21:31:01.282Z,56.65
2019-04-11T21:33:35.019Z,51.65
2019-04-11T21:36:07.883Z,55.28
2019-04-11T21:38:40.924Z,56.35
2019-04-11T21:41:12.609Z,53.28
2019-04-11T21:43:45.182Z,52.73
2019-04-11T21:46:18.143Z,54.85
2019-04-11T21:48:51.403Z,55.00
2019-04-11T21:51:23.204Z,54.05
2019-04-11T21:53:56.415Z,56.70
2019-04-11T21:56:29.647Z,56.05
2019-04-11T21:59:02.745Z,55.95
2019-04-11T22:01:37.150Z,55.20
2019-04-11T22:04:11.043Z,53.95
2019-04-11T22:06:44.013Z,53.23
2019-04-11T22:09:16.663Z,57.62
2019-04-11T22:11:47.642Z,51.33
2019-04-11T22:14:21.022Z,55.23
2019-04-11T22:16:54.936Z,51.42
2019-04-11T22:19:27.524Z,52.03
2019-04-11T22:22:00.042Z,59.20
2019-04-11T22:24:32.862Z,56.10
2019-04-11T22:27:05.742Z,55.45
2019-04-11T22:29:38.322Z,53.68
2019-04-11T22:32:11.124Z,59.48
2019-04-11T22:34:45.663Z,55.28
2019-04-11T22:37:18.567Z,56.33
2019-04-11T22:39:50.883Z,55.12
2019-04-11T22:42:23.223Z,55.73
2019-04-11T22:44:56.202Z,58.00
2019-04-11T22:47:28.862Z,58.65
2019-04-11T22:50:01.442Z,55.00
2019-04-11T22:52:33.302Z,53.30
2019-04-11T22:55:06.082Z,55.67
2019-04-11T22:57:40.865Z,57.85
2019-04-11T23:00:15.223Z,56.25
2019-04-11T23:02:57.662Z,56.95
2019-04-11T23:05:30.262Z,55.80
2019-04-11T23:08:03.282Z,54.48
2019-04-11T23:10:36.381Z,51.98
2019-04-11T23:13:10.502Z,55.70
2019-04-11T23:15:43.368Z,57.25
2019-04-11T23:18:15.162Z,55.70
2019-04-11T23:20:47.463Z,55.65
2019-04-11T23:23:20.243Z,58.60
2019-04-11T23:25:52.383Z,54.27
2019-04-11T23:28:24.723Z,56.80
2019-04-11T23:30:57.442Z,52.45
2019-04-11T23:33:28.022Z,54.95
2019-04-11T23:36:00.363Z,58.63
2019-04-11T23:38:32.462Z,57.25
2019-04-11T23:41:05.002Z,57.00
2019-04-11T23:43:37.443Z,55.95
2019-04-11T23:46:09.662Z,58.02
2019-04-11T23:48:41.718Z,55.03
2019-04-11T23:51:13.294Z,53.95
2019-04-11T23:53:45.332Z,59.83
2019-04-11T23:56:17.614Z,59.98
2019-04-11T23:58:50.492Z,61.13
